createdAt,value
2023-05-09T00:02:29.679Z,2.12
2023-05-09T00:05:32.743Z,1.62
2023-05-09T00:08:36.126Z,1.87
2023-05-09T00:11:39.421Z,2.00
2023-05-09T00:14:42.679Z,2.25
2023-05-09T00:17:46.072Z,2.10
2023-05-09T00:20:49.791Z,1.70
2023-05-09T00:23:52.894Z,1.98
2023-05-09T00:26:55.613Z,1.90
2023-05-09T00:29:58.687Z,2.28
2023-05-09T00:33:01.620Z,2.33
2023-05-09T00:36:05.239Z,1.85
2023-05-09T00:39:08.174Z,2.03
2023-05-09T00:42:11.175Z,1.85
2023-05-09T00:45:13.869Z,2.00
2023-05-09T00:48:17.270Z,2.03
2023-05-09T00:51:20.570Z,2.33
2023-05-09T00:54:23.451Z,1.73
2023-05-09T00:57:26.251Z,2.00
2023-05-09T01:00:29.367Z,2.08
2023-05-09T01:03:33.005Z,1.80
2023-05-09T01:06:52.477Z,1.98
2023-05-09T01:10:23.539Z,2.30
2023-05-09T01:13:36.150Z,1.98
2023-05-09T01:16:46.838Z,1.70
2023-05-09T01:20:13.151Z,1.90
2023-05-09T01:23:31.379Z,2.33
2023-05-09T01:26:46.650Z,2.47
2023-05-09T01:29:57.190Z,2.28
2023-05-09T01:33:06.465Z,2.33
2023-05-09T01:36:15.120Z,2.80
2023-05-09T01:39:19.180Z,2.30
2023-05-09T01:42:22.829Z,2.47
2023-05-09T01:45:27.506Z,2.22
2023-05-09T01:48:31.538Z,2.62
2023-05-09T01:51:36.696Z,2.17
2023-05-09T01:54:40.611Z,2.40
2023-05-09T01:57:45.197Z,2.50
2023-05-09T02:00:50.603Z,2.47
2023-05-09T02:03:54.378Z,2.47
2023-05-09T02:06:58.018Z,2.12
2023-05-09T02:10:02.308Z,2.58
2023-05-09T02:13:05.234Z,2.30
2023-05-09T02:16:09.290Z,2.50
2023-05-09T02:19:14.547Z,2.40
2023-05-09T02:22:17.489Z,2.35
2023-05-09T02:25:20.361Z,2.62
2023-05-09T02:28:25.459Z,2.15
2023-05-09T02:31:29.791Z,2.58
2023-05-09T02:34:33.184Z,2.80
2023-05-09T02:37:37.085Z,2.37
2023-05-09T02:40:42.989Z,2.10
2023-05-09T02:43:46.045Z,2.15
2023-05-09T02:46:48.686Z,1.98
2023-05-09T02:49:51.638Z,2.40
2023-05-09T02:52:54.436Z,3.00
2023-05-09T02:55:57.346Z,2.28
2023-05-09T02:59:00.089Z,2.60
2023-05-09T03:02:03.189Z,2.72
2023-05-09T03:05:06.310Z,2.80
2023-05-09T03:08:09.842Z,3.00
2023-05-09T03:11:12.435Z,2.47
2023-05-09T03:14:15.503Z,2.30
2023-05-09T03:17:21.330Z,2.70
2023-05-09T03:20:26.836Z,2.40
2023-05-09T03:23:29.724Z,2.42
2023-05-09T03:26:32.672Z,2.20
2023-05-09T03:29:36.071Z,2.40
2023-05-09T03:32:39.912Z,2.65
2023-05-09T03:35:42.459Z,2.42
2023-05-09T03:38:45.584Z,2.62
2023-05-09T03:41:49.199Z,2.72
2023-05-09T03:44:53.029Z,2.60
2023-05-09T03:47:56.567Z,2.72
2023-05-09T03:50:59.773Z,2.92
2023-05-09T03:54:02.926Z,2.70
2023-05-09T03:57:05.930Z,2.72
2023-05-09T04:00:10.431Z,3.42
2023-05-09T04:03:16.585Z,2.40
2023-05-09T04:06:20.626Z,2.87
2023-05-09T04:09:24.048Z,2.42
2023-05-09T04:12:27.502Z,2.53
2023-05-09T04:15:30.830Z,2.60
2023-05-09T04:18:34.107Z,2.67
2023-05-09T04:21:36.830Z,3.03
2023-05-09T04:24:39.924Z,2.58
2023-05-09T04:27:42.636Z,2.22
2023-05-09T04:30:46.423Z,2.65
2023-05-09T04:33:49.168Z,2.83
2023-05-09T04:36:52.230Z,2.30
2023-05-09T04:39:55.229Z,2.83
2023-05-09T04:42:59.687Z,2.33
2023-05-09T04:46:02.651Z,2.65
2023-05-09T04:49:05.802Z,2.92
2023-05-09T04:52:08.508Z,2.95
2023-05-09T04:55:11.645Z,2.78
2023-05-09T04:58:14.563Z,3.15
2023-05-09T05:01:17.995Z,2.75
2023-05-09T05:04:20.750Z,3.15
2023-05-09T05:07:24.661Z,2.87
2023-05-09T05:10:27.474Z,2.95
2023-05-09T05:13:32.009Z,2.50
2023-05-09T05:16:35.359Z,2.95
2023-05-09T05:19:38.354Z,3.05
2023-05-09T05:22:41.362Z,3.40
2023-05-09T05:25:44.373Z,2.75
2023-05-09T05:28:48.186Z,3.30
2023-05-09T05:31:51.258Z,2.85
2023-05-09T05:34:53.932Z,3.75
2023-05-09T05:37:56.951Z,3.72
2023-05-09T05:41:00.806Z,2.67
2023-05-09T05:44:04.001Z,3.65
2023-05-09T05:47:07.255Z,3.35
2023-05-09T05:50:12.095Z,3.53
2023-05-09T05:53:15.429Z,3.83
2023-05-09T05:56:19.134Z,3.05
2023-05-09T05:59:21.955Z,4.05
2023-05-09T06:02:25.184Z,3.47
2023-05-09T06:05:28.328Z,3.50
2023-05-09T06:08:31.470Z,3.80
2023-05-09T06:11:34.420Z,3.62
2023-05-09T06:14:36.975Z,3.30
2023-05-09T06:17:40.415Z,3.50
2023-05-09T06:20:43.052Z,3.40
2023-05-09T06:26:52.048Z,3.25
2023-05-09T06:29:55.030Z,3.72
2023-05-09T06:32:58.378Z,3.10
2023-05-09T06:36:01.353Z,2.90
2023-05-09T06:39:04.195Z,3.12
2023-05-09T06:42:07.077Z,2.83
2023-05-09T06:45:13.032Z,2.92
2023-05-09T06:48:16.092Z,3.05
2023-05-09T06:51:18.721Z,2.92
2023-05-09T06:54:21.631Z,2.33
2023-05-09T06:57:24.333Z,2.00
2023-05-09T07:00:27.325Z,1.35
2023-05-09T07:03:30.389Z,1.60
2023-05-09T07:06:33.937Z,1.40
2023-05-09T07:09:37.647Z,2.95
2023-05-09T07:12:41.569Z,1.55
2023-05-09T07:15:44.504Z,1.50
2023-05-09T07:18:47.500Z,1.67
2023-05-09T07:21:50.108Z,1.55
2023-05-09T07:24:53.063Z,1.70
2023-05-09T07:27:55.695Z,1.67
2023-05-09T07:30:58.632Z,1.55
2023-05-09T07:34:01.170Z,1.40
2023-05-09T07:37:04.020Z,1.30
2023-05-09T07:40:07.310Z,1.37
2023-05-09T07:43:10.212Z,1.52
2023-05-09T07:46:12.989Z,1.70
2023-05-09T07:49:16.047Z,1.27
2023-05-09T07:52:18.700Z,1.52
2023-05-09T07:55:21.572Z,1.40
2023-05-09T07:58:24.226Z,1.55
2023-05-09T08:01:27.137Z,0.98
2023-05-09T08:04:30.118Z,1.15
2023-05-09T08:07:32.682Z,1.10
2023-05-09T08:10:35.721Z,1.10
2023-05-09T08:13:38.387Z,1.50
2023-05-09T08:16:43.455Z,1.17
2023-05-09T08:19:46.200Z,1.12
2023-05-09T08:22:49.032Z,0.98
2023-05-09T08:25:55.035Z,1.48
2023-05-09T08:28:58.077Z,1.02
2023-05-09T08:32:01.087Z,1.10
2023-05-09T08:35:04.267Z,1.30
2023-05-09T08:38:06.879Z,1.20
2023-05-09T08:41:09.832Z,1.02
2023-05-09T08:44:13.028Z,1.42
2023-05-09T08:47:16.106Z,1.48
2023-05-09T08:50:20.434Z,1.10
2023-05-09T08:53:23.536Z,1.20
2023-05-09T08:56:26.684Z,1.02
2023-05-09T08:59:31.013Z,1.02
2023-05-09T09:02:35.561Z,0.90
2023-05-09T09:05:42.782Z,1.00
2023-05-09T09:08:46.506Z,0.98
2023-05-09T09:11:49.771Z,1.10
2023-05-09T09:15:00.224Z,1.00
2023-05-09T09:18:11.593Z,1.10
2023-05-09T09:21:19.516Z,1.08
2023-05-09T09:27:25.728Z,1.00
2023-05-09T09:30:29.388Z,0.98
2023-05-09T09:33:32.070Z,1.00
2023-05-09T09:36:36.846Z,1.00
2023-05-09T09:39:53.980Z,0.90
2023-05-09T09:42:56.823Z,0.93
2023-05-09T09:46:04.102Z,1.08
2023-05-09T09:49:19.200Z,0.90
2023-05-09T09:52:25.235Z,1.00
2023-05-09T09:55:29.375Z,0.95
2023-05-09T09:58:32.047Z,0.80
2023-05-09T10:01:35.019Z,1.23
2023-05-09T10:04:39.326Z,0.98
2023-05-09T10:07:41.931Z,1.05
2023-05-09T10:10:45.088Z,1.00
2023-05-09T10:13:47.939Z,1.20
2023-05-09T10:17:02.172Z,1.20
2023-05-09T10:20:06.171Z,1.20
2023-05-09T10:23:12.018Z,1.02
2023-05-09T10:26:19.823Z,0.90
2023-05-09T10:29:25.367Z,1.25
2023-05-09T10:32:29.954Z,0.80
2023-05-09T10:35:47.116Z,1.42
2023-05-09T10:38:54.907Z,1.10
2023-05-09T10:45:01.991Z,1.10
2023-05-09T10:48:08.814Z,1.25
2023-05-09T10:51:12.791Z,1.08
2023-05-09T10:54:30.070Z,1.10
2023-05-09T10:57:34.564Z,1.30
2023-05-09T11:00:41.840Z,1.37
2023-05-09T11:03:58.957Z,1.33
2023-05-09T11:07:01.966Z,1.52
2023-05-09T11:10:16.838Z,1.58
2023-05-09T11:13:25.118Z,1.23
2023-05-09T11:19:43.084Z,1.35
2023-05-09T11:22:47.207Z,1.55
2023-05-09T11:25:50.207Z,1.33
2023-05-09T11:28:54.246Z,1.40
2023-05-09T11:32:10.163Z,1.23
2023-05-09T11:35:18.023Z,1.20
2023-05-09T11:38:22.846Z,1.25
2023-05-09T11:41:27.045Z,1.73
2023-05-09T11:44:33.521Z,1.10
2023-05-09T11:47:37.833Z,1.67
2023-05-09T11:50:41.707Z,0.95
2023-05-09T11:53:46.910Z,1.62
2023-05-09T11:56:49.766Z,1.08
2023-05-09T11:59:52.956Z,1.25
2023-05-09T12:02:56.440Z,1.10
2023-05-09T12:05:59.402Z,1.30
2023-05-09T12:09:02.011Z,1.37
2023-05-09T12:12:12.249Z,1.40
2023-05-09T12:15:15.959Z,1.00
2023-05-09T12:18:19.041Z,1.30
2023-05-09T12:21:22.759Z,1.25
2023-05-09T12:24:29.283Z,0.98
2023-05-09T12:27:33.104Z,1.20
2023-05-09T12:30:36.183Z,1.30
2023-05-09T12:33:39.419Z,1.30
2023-05-09T12:36:52.029Z,1.40
2023-05-09T12:40:06.309Z,1.17
2023-05-09T12:43:09.165Z,1.20
2023-05-09T12:46:11.763Z,1.10
2023-05-09T12:49:22.112Z,1.20
2023-05-09T12:52:24.975Z,1.08
2023-05-09T12:55:28.009Z,1.33
2023-05-09T12:58:32.925Z,1.12
2023-05-09T13:01:36.317Z,1.10
2023-05-09T13:04:38.821Z,1.40
2023-05-09T13:07:43.410Z,1.12
2023-05-09T13:10:46.147Z,1.40
2023-05-09T13:13:49.011Z,1.48
2023-05-09T13:16:51.659Z,1.20
2023-05-09T13:19:54.511Z,1.30
2023-05-09T13:22:57.705Z,1.25
2023-05-09T13:26:00.601Z,1.30
2023-05-09T13:29:03.491Z,1.40
2023-05-09T13:32:07.205Z,1.02
2023-05-09T13:35:10.015Z,1.20
2023-05-09T13:38:12.828Z,1.30
2023-05-09T13:41:20.150Z,1.08
2023-05-09T13:44:26.667Z,0.90
2023-05-09T13:47:29.220Z,1.25
2023-05-09T13:50:32.626Z,1.48
2023-05-09T13:53:37.354Z,1.20
2023-05-09T13:56:42.920Z,1.17
2023-05-09T13:59:45.635Z,1.50
2023-05-09T14:02:48.663Z,1.30
2023-05-09T14:05:51.932Z,1.20
2023-05-09T14:08:56.168Z,1.10
2023-05-09T14:11:59.033Z,1.30
2023-05-09T14:15:02.301Z,1.10
2023-05-09T14:18:05.244Z,1.25
2023-05-09T14:21:08.039Z,0.90
2023-05-09T14:24:15.079Z,1.20
2023-05-09T14:27:18.491Z,1.27
2023-05-09T14:30:21.700Z,1.02
2023-05-09T14:33:24.399Z,1.17
2023-05-09T14:36:28.959Z,1.02
2023-05-09T14:39:31.577Z,1.33
2023-05-09T14:42:35.622Z,1.00
2023-05-09T14:45:38.411Z,1.15
2023-05-09T14:48:41.395Z,1.30
2023-05-09T14:51:44.464Z,1.30
2023-05-09T14:54:47.463Z,1.20
2023-05-09T14:57:50.092Z,1.35
2023-05-09T15:00:53.581Z,0.90
2023-05-09T15:03:56.332Z,1.10
2023-05-09T15:06:59.737Z,0.90
2023-05-09T15:10:03.479Z,1.23
2023-05-09T15:13:06.418Z,0.80
2023-05-09T15:16:09.100Z,1.10
2023-05-09T15:19:12.100Z,1.00
2023-05-09T15:22:14.891Z,1.20
2023-05-09T15:25:18.134Z,1.17
2023-05-09T15:28:20.697Z,1.10
2023-05-09T15:31:24.938Z,1.25
2023-05-09T15:34:27.700Z,0.85
2023-05-09T15:37:30.618Z,1.23
2023-05-09T15:40:33.386Z,1.02
2023-05-09T15:43:36.219Z,1.00
2023-05-09T15:46:38.836Z,1.00
2023-05-09T15:49:41.810Z,1.17
2023-05-09T15:52:44.436Z,1.12
2023-05-09T15:55:47.360Z,1.10
2023-05-09T15:58:50.010Z,1.20
2023-05-09T16:01:53.642Z,1.40
2023-05-09T16:04:56.676Z,1.20
2023-05-09T16:07:59.187Z,1.20
2023-05-09T16:11:02.188Z,1.30
2023-05-09T16:14:07.545Z,1.25
2023-05-09T16:17:10.517Z,1.05
2023-05-09T16:20:14.268Z,1.27
2023-05-09T16:23:17.527Z,1.23
2023-05-09T16:26:20.109Z,0.82
2023-05-09T16:29:23.118Z,0.90
2023-05-09T16:32:25.704Z,1.12
2023-05-09T16:35:28.958Z,1.10
2023-05-09T16:38:31.714Z,0.90
2023-05-09T16:41:34.850Z,0.93
2023-05-09T16:44:37.579Z,1.35
2023-05-09T16:47:40.755Z,1.23
2023-05-09T16:50:45.262Z,1.23
2023-05-09T16:53:48.205Z,1.02
2023-05-09T16:56:50.782Z,1.20
2023-05-09T16:59:53.906Z,1.20
2023-05-09T17:02:56.524Z,1.73
2023-05-09T17:05:59.464Z,1.25
2023-05-09T17:09:02.017Z,1.25
2023-05-09T17:12:05.227Z,1.40
2023-05-09T17:15:09.158Z,1.52
2023-05-09T17:18:15.315Z,1.60
2023-05-09T17:21:23.039Z,1.37
2023-05-09T17:24:25.965Z,1.50
2023-05-09T17:27:28.587Z,1.27
2023-05-09T17:30:31.625Z,1.15
2023-05-09T17:33:34.358Z,1.50
2023-05-09T17:36:37.180Z,1.50
2023-05-09T17:39:40.766Z,1.58
2023-05-09T17:42:43.698Z,1.58
2023-05-09T17:45:46.698Z,1.50
2023-05-09T17:48:49.884Z,1.37
2023-05-09T17:51:52.620Z,1.67
2023-05-09T17:54:56.292Z,1.65
2023-05-09T17:57:58.964Z,1.62
2023-05-09T18:01:04.173Z,1.73
2023-05-09T18:04:07.294Z,1.35
2023-05-09T18:07:09.825Z,1.52
2023-05-09T18:10:13.194Z,1.85
2023-05-09T18:13:16.568Z,1.70
2023-05-09T18:16:19.553Z,2.00
2023-05-09T18:19:22.312Z,1.77
2023-05-09T18:22:25.604Z,1.60
2023-05-09T18:25:28.217Z,1.80
2023-05-09T18:28:39.024Z,1.62
2023-05-09T18:31:41.839Z,1.83
2023-05-09T18:34:44.865Z,1.85
2023-05-09T18:37:47.512Z,1.98
2023-05-09T18:40:52.103Z,1.73
2023-05-09T18:43:57.159Z,1.90
2023-05-09T18:47:00.113Z,2.22
2023-05-09T18:50:04.816Z,2.20
2023-05-09T18:53:07.723Z,1.70
2023-05-09T18:56:10.495Z,1.90
2023-05-09T18:59:16.216Z,2.03
2023-05-09T19:02:19.533Z,2.15
2023-05-09T19:05:22.773Z,1.90
2023-05-09T19:08:26.949Z,2.00
2023-05-09T19:11:30.330Z,2.45
2023-05-09T19:14:33.367Z,2.30
2023-05-09T19:17:36.759Z,2.10
2023-05-09T19:20:49.170Z,2.25
2023-05-09T19:23:52.595Z,1.98
2023-05-09T19:26:55.712Z,2.30
2023-05-09T19:29:59.467Z,2.28
2023-05-09T19:33:02.471Z,2.65
2023-05-09T19:36:06.277Z,2.17
2023-05-09T19:39:09.344Z,2.47
2023-05-09T19:42:12.584Z,2.40
2023-05-09T19:45:15.731Z,2.33
2023-05-09T19:48:19.115Z,2.37
2023-05-09T19:51:22.115Z,2.10
2023-05-09T19:54:27.086Z,2.22
2023-05-09T19:57:29.984Z,2.45
2023-05-09T20:00:33.458Z,2.83
2023-05-09T20:03:37.184Z,2.55
2023-05-09T20:06:40.181Z,2.37
2023-05-09T20:09:43.514Z,2.70
2023-05-09T20:12:46.187Z,2.70
2023-05-09T20:15:50.211Z,2.70
2023-05-09T20:18:52.993Z,2.10
2023-05-09T20:21:56.009Z,2.70
2023-05-09T20:24:58.700Z,2.60
2023-05-09T20:28:01.643Z,2.40
2023-05-09T20:31:04.271Z,2.67
2023-05-09T20:34:10.657Z,2.60
2023-05-09T20:37:13.406Z,2.28
2023-05-09T20:40:16.518Z,2.60
2023-05-09T20:43:19.892Z,2.30
2023-05-09T20:46:22.808Z,2.28
2023-05-09T20:49:25.821Z,2.50
2023-05-09T20:52:28.802Z,2.37
2023-05-09T20:55:31.408Z,2.33
2023-05-09T20:58:34.593Z,2.40
2023-05-09T21:01:37.402Z,2.47
2023-05-09T21:04:40.365Z,2.12
2023-05-09T21:07:43.021Z,3.05
2023-05-09T21:10:46.035Z,2.55
2023-05-09T21:13:48.711Z,2.47
2023-05-09T21:16:51.950Z,2.85
2023-05-09T21:19:54.616Z,2.33
2023-05-09T21:22:57.552Z,2.70
2023-05-09T21:26:00.839Z,2.45
2023-05-09T21:29:03.775Z,2.83
2023-05-09T21:32:06.435Z,2.83
2023-05-09T21:35:12.605Z,3.17
2023-05-09T21:38:15.186Z,2.37
2023-05-09T21:41:18.168Z,2.72
2023-05-09T21:44:20.788Z,2.70
2023-05-09T21:47:23.761Z,2.97
2023-05-09T21:50:26.615Z,2.17
2023-05-09T21:53:29.584Z,2.65
2023-05-09T21:56:32.157Z,2.67
2023-05-09T21:59:34.893Z,2.37
2023-05-09T22:02:38.783Z,2.53
2023-05-09T22:05:41.774Z,3.05
2023-05-09T22:08:44.341Z,2.42
2023-05-09T22:11:47.269Z,2.87
2023-05-09T22:14:56.213Z,3.08
2023-05-09T22:18:00.008Z,2.75
2023-05-09T22:21:02.661Z,3.10
2023-05-09T22:24:06.992Z,2.92
2023-05-09T22:27:10.271Z,2.83
2023-05-09T22:30:13.591Z,2.90
2023-05-09T22:33:16.300Z,2.70
2023-05-09T22:36:19.777Z,3.08
2023-05-09T22:39:22.337Z,2.90
2023-05-09T22:42:25.223Z,2.92
2023-05-09T22:45:27.842Z,3.10
2023-05-09T22:48:30.654Z,2.90
2023-05-09T22:51:33.474Z,2.90
2023-05-09T22:54:36.318Z,2.80
2023-05-09T22:57:40.228Z,2.78
2023-05-09T23:00:43.112Z,2.75
2023-05-09T23:03:45.657Z,3.05
2023-05-09T23:07:07.835Z,2.87
2023-05-09T23:10:29.457Z,2.70
2023-05-09T23:13:32.536Z,2.67
2023-05-09T23:16:35.437Z,2.90
2023-05-09T23:19:38.312Z,2.75
2023-05-09T23:22:40.994Z,2.78
2023-05-09T23:25:44.429Z,2.75
2023-05-09T23:28:47.052Z,2.78
2023-05-09T23:31:50.168Z,2.75
2023-05-09T23:34:53.445Z,2.37
2023-05-09T23:37:56.519Z,2.03
2023-05-09T23:41:00.099Z,2.25
2023-05-09T23:44:03.500Z,2.67
2023-05-09T23:47:06.299Z,2.40
2023-05-09T23:50:09.331Z,2.08
2023-05-09T23:53:12.062Z,2.08
2023-05-09T23:56:15.101Z,2.37
2023-05-09T23:59:17.683Z,2.33
